sensor_id;sensor_type;location;lat;lon;timestamp;temperature;humidity
16785;DHT22;8509;52.178;5.404;2023-09-08T00:01:50;19.20;99.90
16785;DHT22;8509;52.178;5.404;2023-09-08T00:04:16;19.20;99.90
16785;DHT22;8509;52.178;5.404;2023-09-08T00:06:42;19.20;99.90
16785;DHT22;8509;52.178;5.404;2023-09-08T00:09:07;19.20;99.90
16785;DHT22;8509;52.178;5.404;2023-09-08T00:11:33;19.10;99.90
16785;DHT22;8509;52.178;5.404;2023-09-08T00:13:59;19.10;99.90
16785;DHT22;8509;52.178;5.404;2023-09-08T00:16:25;19.10;99.90
16785;DHT22;8509;52.178;5.404;2023-09-08T00:18:50;19.00;99.90
16785;DHT22;8509;52.178;5.404;2023-09-08T00:21:16;19.00;99.90
16785;DHT22;8509;52.178;5.404;2023-09-08T00:23:42;19.00;99.90
16785;DHT22;8509;52.178;5.404;2023-09-08T00:26:07;19.00;99.90
16785;DHT22;8509;52.178;5.404;2023-09-08T00:28:33;18.90;99.90
16785;DHT22;8509;52.178;5.404;2023-09-08T00:30:59;18.90;99.90
16785;DHT22;8509;52.178;5.404;2023-09-08T00:33:27;18.90;99.90
16785;DHT22;8509;52.178;5.404;2023-09-08T00:35:53;18.80;99.90
16785;DHT22;8509;52.178;5.404;2023-09-08T00:38:22;18.80;99.90
16785;DHT22;8509;52.178;5.404;2023-09-08T00:40:48;18.90;99.90
16785;DHT22;8509;52.178;5.404;2023-09-08T00:43:13;18.90;99.90
16785;DHT22;8509;52.178;5.404;2023-09-08T00:45:45;18.80;99.90
16785;DHT22;8509;52.178;5.404;2023-09-08T00:48:11;18.80;99.90
16785;DHT22;8509;52.178;5.404;2023-09-08T00:50:37;18.80;99.90
16785;DHT22;8509;52.178;5.404;2023-09-08T00:53:03;18.80;99.90
16785;DHT22;8509;52.178;5.404;2023-09-08T00:55:31;18.70;99.90
16785;DHT22;8509;52.178;5.404;2023-09-08T00:57:57;18.70;99.90
16785;DHT22;8509;52.178;5.404;2023-09-08T01:00:24;18.70;99.90
16785;DHT22;8509;52.178;5.404;2023-09-08T01:02:50;18.60;99.90
16785;DHT22;8509;52.178;5.404;2023-09-08T01:05:16;18.60;99.90
16785;DHT22;8509;52.178;5.404;2023-09-08T01:07:42;18.60;99.90
16785;DHT22;8509;52.178;5.404;2023-09-08T01:10:08;18.60;99.90
16785;DHT22;8509;52.178;5.404;2023-09-08T01:12:37;18.60;99.90
16785;DHT22;8509;52.178;5.404;2023-09-08T01:15:03;18.50;99.90
16785;DHT22;8509;52.178;5.404;2023-09-08T01:17:32;18.50;99.90
16785;DHT22;8509;52.178;5.404;2023-09-08T01:25:24;18.50;99.90
16785;DHT22;8509;52.178;5.404;2023-09-08T01:27:52;18.50;99.90
16785;DHT22;8509;52.178;5.404;2023-09-08T01:30:19;18.50;99.90
16785;DHT22;8509;52.178;5.404;2023-09-08T01:32:47;18.40;99.90
16785;DHT22;8509;52.178;5.404;2023-09-08T01:35:13;18.40;99.90
16785;DHT22;8509;52.178;5.404;2023-09-08T01:37:44;18.40;99.90
16785;DHT22;8509;52.178;5.404;2023-09-08T01:40:11;18.40;99.90
16785;DHT22;8509;52.178;5.404;2023-09-08T01:42:37;18.40;99.90
16785;DHT22;8509;52.178;5.404;2023-09-08T01:45:03;18.30;99.90
16785;DHT22;8509;52.178;5.404;2023-09-08T01:47:30;18.30;99.90
16785;DHT22;8509;52.178;5.404;2023-09-08T01:49:55;18.30;99.90
16785;DHT22;8509;52.178;5.404;2023-09-08T01:52:21;18.30;99.90
16785;DHT22;8509;52.178;5.404;2023-09-08T01:54:47;18.30;99.90
16785;DHT22;8509;52.178;5.404;2023-09-08T01:57:13;18.30;99.90
16785;DHT22;8509;52.178;5.404;2023-09-08T01:59:38;18.20;99.90
16785;DHT22;8509;52.178;5.404;2023-09-08T02:02:04;18.20;99.90
16785;DHT22;8509;52.178;5.404;2023-09-08T02:04:30;18.20;99.90
16785;DHT22;8509;52.178;5.404;2023-09-08T02:06:55;18.20;99.90
16785;DHT22;8509;52.178;5.404;2023-09-08T02:09:21;18.10;99.90
16785;DHT22;8509;52.178;5.404;2023-09-08T02:11:47;18.10;99.90
16785;DHT22;8509;52.178;5.404;2023-09-08T02:14:13;18.00;99.90
16785;DHT22;8509;52.178;5.404;2023-09-08T02:16:38;18.00;99.90
16785;DHT22;8509;52.178;5.404;2023-09-08T02:19:05;18.00;99.90
16785;DHT22;8509;52.178;5.404;2023-09-08T02:21:30;18.00;99.90
16785;DHT22;8509;52.178;5.404;2023-09-08T02:23:56;18.00;99.90
16785;DHT22;8509;52.178;5.404;2023-09-08T02:26:22;17.90;99.90
16785;DHT22;8509;52.178;5.404;2023-09-08T02:28:47;17.90;99.90
16785;DHT22;8509;52.178;5.404;2023-09-08T02:31:13;18.00;99.90
16785;DHT22;8509;52.178;5.404;2023-09-08T02:33:38;17.90;99.90
16785;DHT22;8509;52.178;5.404;2023-09-08T02:36:05;17.90;99.90
16785;DHT22;8509;52.178;5.404;2023-09-08T02:38:32;17.90;99.90
16785;DHT22;8509;52.178;5.404;2023-09-08T02:40:57;17.90;99.90
16785;DHT22;8509;52.178;5.404;2023-09-08T02:43:23;17.80;99.90
16785;DHT22;8509;52.178;5.404;2023-09-08T02:45:49;17.80;99.90
16785;DHT22;8509;52.178;5.404;2023-09-08T02:48:15;17.80;99.90
16785;DHT22;8509;52.178;5.404;2023-09-08T02:50:42;17.80;99.90
16785;DHT22;8509;52.178;5.404;2023-09-08T02:53:08;17.80;99.90
16785;DHT22;8509;52.178;5.404;2023-09-08T02:55:34;17.80;99.90
16785;DHT22;8509;52.178;5.404;2023-09-08T02:58:00;17.80;99.90
16785;DHT22;8509;52.178;5.404;2023-09-08T03:00:25;17.80;99.90
16785;DHT22;8509;52.178;5.404;2023-09-08T03:02:51;17.80;99.90
16785;DHT22;8509;52.178;5.404;2023-09-08T03:05:17;17.70;99.90
16785;DHT22;8509;52.178;5.404;2023-09-08T03:07:47;17.70;99.90
16785;DHT22;8509;52.178;5.404;2023-09-08T03:10:14;17.70;99.90
16785;DHT22;8509;52.178;5.404;2023-09-08T03:12:40;17.70;99.90
16785;DHT22;8509;52.178;5.404;2023-09-08T03:15:06;17.60;99.90
16785;DHT22;8509;52.178;5.404;2023-09-08T03:17:32;17.60;99.90
16785;DHT22;8509;52.178;5.404;2023-09-08T03:19:57;17.60;99.90
16785;DHT22;8509;52.178;5.404;2023-09-08T03:22:23;17.60;99.90
16785;DHT22;8509;52.178;5.404;2023-09-08T03:24:50;17.60;99.90
16785;DHT22;8509;52.178;5.404;2023-09-08T03:27:15;17.60;99.90
16785;DHT22;8509;52.178;5.404;2023-09-08T03:29:41;17.50;99.90
16785;DHT22;8509;52.178;5.404;2023-09-08T03:32:07;17.50;99.90
16785;DHT22;8509;52.178;5.404;2023-09-08T03:34:33;17.60;99.90
16785;DHT22;8509;52.178;5.404;2023-09-08T03:36:59;17.60;99.90
16785;DHT22;8509;52.178;5.404;2023-09-08T03:39:25;17.50;99.90
16785;DHT22;8509;52.178;5.404;2023-09-08T03:41:50;17.50;99.90
16785;DHT22;8509;52.178;5.404;2023-09-08T03:44:16;17.50;99.90
16785;DHT22;8509;52.178;5.404;2023-09-08T03:46:42;17.40;99.90
16785;DHT22;8509;52.178;5.404;2023-09-08T03:49:07;17.30;99.90
16785;DHT22;8509;52.178;5.404;2023-09-08T03:51:33;17.40;99.90
16785;DHT22;8509;52.178;5.404;2023-09-08T03:53:59;17.40;99.90
16785;DHT22;8509;52.178;5.404;2023-09-08T03:56:25;17.40;99.90
16785;DHT22;8509;52.178;5.404;2023-09-08T03:58:51;17.40;99.90
16785;DHT22;8509;52.178;5.404;2023-09-08T04:01:17;17.40;99.90
16785;DHT22;8509;52.178;5.404;2023-09-08T04:03:42;17.40;99.90
16785;DHT22;8509;52.178;5.404;2023-09-08T04:06:09;17.30;99.90
16785;DHT22;8509;52.178;5.404;2023-09-08T04:08:36;17.30;99.90
16785;DHT22;8509;52.178;5.404;2023-09-08T04:11:02;17.30;99.90
16785;DHT22;8509;52.178;5.404;2023-09-08T04:13:27;17.30;99.90
16785;DHT22;8509;52.178;5.404;2023-09-08T04:15:53;17.20;99.90
16785;DHT22;8509;52.178;5.404;2023-09-08T04:18:19;17.20;99.90
16785;DHT22;8509;52.178;5.404;2023-09-08T04:20:45;17.20;99.90
16785;DHT22;8509;52.178;5.404;2023-09-08T04:23:10;17.10;99.90
16785;DHT22;8509;52.178;5.404;2023-09-08T04:25:36;17.10;99.90
16785;DHT22;8509;52.178;5.404;2023-09-08T04:28:02;17.10;99.90
16785;DHT22;8509;52.178;5.404;2023-09-08T04:30:28;17.00;99.90
16785;DHT22;8509;52.178;5.404;2023-09-08T04:32:53;17.00;99.90
16785;DHT22;8509;52.178;5.404;2023-09-08T04:35:19;17.00;99.90
16785;DHT22;8509;52.178;5.404;2023-09-08T04:37:44;16.90;99.90
16785;DHT22;8509;52.178;5.404;2023-09-08T04:40:10;16.90;99.90
16785;DHT22;8509;52.178;5.404;2023-09-08T04:42:36;16.90;99.90
16785;DHT22;8509;52.178;5.404;2023-09-08T04:45:01;16.90;99.90
16785;DHT22;8509;52.178;5.404;2023-09-08T04:47:27;16.90;99.90
16785;DHT22;8509;52.178;5.404;2023-09-08T04:49:53;16.90;99.90
16785;DHT22;8509;52.178;5.404;2023-09-08T04:52:18;16.90;99.90
16785;DHT22;8509;52.178;5.404;2023-09-08T04:54:44;16.90;99.90
16785;DHT22;8509;52.178;5.404;2023-09-08T04:57:10;16.90;99.90
16785;DHT22;8509;52.178;5.404;2023-09-08T04:59:35;16.90;99.90
16785;DHT22;8509;52.178;5.404;2023-09-08T05:02:02;16.90;99.90
16785;DHT22;8509;52.178;5.404;2023-09-08T05:04:28;16.90;99.90
16785;DHT22;8509;52.178;5.404;2023-09-08T05:06:54;16.90;99.90
16785;DHT22;8509;52.178;5.404;2023-09-08T05:09:19;16.90;99.90
16785;DHT22;8509;52.178;5.404;2023-09-08T05:11:45;16.90;99.90
16785;DHT22;8509;52.178;5.404;2023-09-08T05:14:10;17.00;99.90
16785;DHT22;8509;52.178;5.404;2023-09-08T05:16:36;16.80;99.90
16785;DHT22;8509;52.178;5.404;2023-09-08T05:19:05;16.80;99.90
16785;DHT22;8509;52.178;5.404;2023-09-08T05:21:32;17.00;99.90
16785;DHT22;8509;52.178;5.404;2023-09-08T05:23:57;17.00;99.90
16785;DHT22;8509;52.178;5.404;2023-09-08T05:26:23;17.00;99.90
16785;DHT22;8509;52.178;5.404;2023-09-08T05:28:49;17.00;99.90
16785;DHT22;8509;52.178;5.404;2023-09-08T05:31:14;17.10;99.90
16785;DHT22;8509;52.178;5.404;2023-09-08T05:33:40;17.10;99.90
16785;DHT22;8509;52.178;5.404;2023-09-08T05:36:05;17.20;99.90
16785;DHT22;8509;52.178;5.404;2023-09-08T05:38:31;17.20;99.90
16785;DHT22;8509;52.178;5.404;2023-09-08T05:40:57;17.20;99.90
16785;DHT22;8509;52.178;5.404;2023-09-08T05:43:25;17.30;99.90
16785;DHT22;8509;52.178;5.404;2023-09-08T05:45:50;17.30;99.90
16785;DHT22;8509;52.178;5.404;2023-09-08T05:48:16;17.40;99.90
16785;DHT22;8509;52.178;5.404;2023-09-08T05:50:42;17.40;99.90
16785;DHT22;8509;52.178;5.404;2023-09-08T05:53:08;17.50;99.90
16785;DHT22;8509;52.178;5.404;2023-09-08T05:55:33;17.50;99.90
16785;DHT22;8509;52.178;5.404;2023-09-08T05:57:59;17.60;99.90
16785;DHT22;8509;52.178;5.404;2023-09-08T06:00:25;17.60;99.90
16785;DHT22;8509;52.178;5.404;2023-09-08T06:02:50;17.70;99.90
16785;DHT22;8509;52.178;5.404;2023-09-08T06:05:17;17.80;99.90
16785;DHT22;8509;52.178;5.404;2023-09-08T06:07:43;17.80;99.90
16785;DHT22;8509;52.178;5.404;2023-09-08T06:10:09;17.90;99.90
16785;DHT22;8509;52.178;5.404;2023-09-08T06:12:35;17.90;99.90
16785;DHT22;8509;52.178;5.404;2023-09-08T06:15:02;18.00;99.90
16785;DHT22;8509;52.178;5.404;2023-09-08T06:17:28;18.10;99.90
16785;DHT22;8509;52.178;5.404;2023-09-08T06:19:54;18.30;99.90
16785;DHT22;8509;52.178;5.404;2023-09-08T06:22:20;18.50;99.90
16785;DHT22;8509;52.178;5.404;2023-09-08T06:24:45;18.80;99.90
16785;DHT22;8509;52.178;5.404;2023-09-08T06:27:11;19.20;99.90
16785;DHT22;8509;52.178;5.404;2023-09-08T06:29:39;19.70;99.90
16785;DHT22;8509;52.178;5.404;2023-09-08T06:32:06;20.10;99.90
16785;DHT22;8509;52.178;5.404;2023-09-08T06:34:33;20.90;99.90
16785;DHT22;8509;52.178;5.404;2023-09-08T06:37:01;21.40;99.90
16785;DHT22;8509;52.178;5.404;2023-09-08T06:39:26;21.80;99.90
16785;DHT22;8509;52.178;5.404;2023-09-08T06:41:52;22.30;99.90
16785;DHT22;8509;52.178;5.404;2023-09-08T06:44:20;22.90;99.90
16785;DHT22;8509;52.178;5.404;2023-09-08T06:46:46;23.10;99.90
16785;DHT22;8509;52.178;5.404;2023-09-08T06:49:13;23.10;99.90
16785;DHT22;8509;52.178;5.404;2023-09-08T06:51:39;23.00;99.90
16785;DHT22;8509;52.178;5.404;2023-09-08T06:54:05;23.30;99.90
16785;DHT22;8509;52.178;5.404;2023-09-08T06:56:30;23.70;99.90
16785;DHT22;8509;52.178;5.404;2023-09-08T06:58:56;24.10;99.90
16785;DHT22;8509;52.178;5.404;2023-09-08T07:01:24;24.40;99.90
16785;DHT22;8509;52.178;5.404;2023-09-08T07:03:49;24.60;99.90
16785;DHT22;8509;52.178;5.404;2023-09-08T07:06:16;24.80;99.90
16785;DHT22;8509;52.178;5.404;2023-09-08T07:08:42;24.80;99.90
16785;DHT22;8509;52.178;5.404;2023-09-08T07:11:07;24.70;99.90
16785;DHT22;8509;52.178;5.404;2023-09-08T07:13:33;24.50;99.90
16785;DHT22;8509;52.178;5.404;2023-09-08T07:16:00;24.30;99.90
16785;DHT22;8509;52.178;5.404;2023-09-08T07:18:25;24.10;99.90
16785;DHT22;8509;52.178;5.404;2023-09-08T07:20:51;24.00;99.90
16785;DHT22;8509;52.178;5.404;2023-09-08T07:23:17;24.00;99.90
16785;DHT22;8509;52.178;5.404;2023-09-08T07:25:49;24.10;99.90
16785;DHT22;8509;52.178;5.404;2023-09-08T07:28:16;24.20;99.90
16785;DHT22;8509;52.178;5.404;2023-09-08T07:30:42;24.30;99.90
16785;DHT22;8509;52.178;5.404;2023-09-08T07:33:09;24.30;99.90
16785;DHT22;8509;52.178;5.404;2023-09-08T07:35:38;24.40;99.90
16785;DHT22;8509;52.178;5.404;2023-09-08T07:38:04;24.60;99.90
16785;DHT22;8509;52.178;5.404;2023-09-08T07:40:32;24.80;99.90
16785;DHT22;8509;52.178;5.404;2023-09-08T07:42:57;24.90;99.90
16785;DHT22;8509;52.178;5.404;2023-09-08T07:45:23;25.00;99.90
16785;DHT22;8509;52.178;5.404;2023-09-08T07:47:49;25.20;99.90
16785;DHT22;8509;52.178;5.404;2023-09-08T07:50:23;25.40;99.90
16785;DHT22;8509;52.178;5.404;2023-09-08T07:52:50;25.50;99.90
16785;DHT22;8509;52.178;5.404;2023-09-08T07:55:16;25.70;99.90
16785;DHT22;8509;52.178;5.404;2023-09-08T07:57:43;25.80;99.90
16785;DHT22;8509;52.178;5.404;2023-09-08T08:00:10;26.10;99.90
16785;DHT22;8509;52.178;5.404;2023-09-08T08:02:37;26.40;99.90
16785;DHT22;8509;52.178;5.404;2023-09-08T08:05:04;26.60;99.90
16785;DHT22;8509;52.178;5.404;2023-09-08T08:07:30;26.80;99.90
16785;DHT22;8509;52.178;5.404;2023-09-08T08:09:55;26.90;99.90
16785;DHT22;8509;52.178;5.404;2023-09-08T08:12:21;27.00;99.90
16785;DHT22;8509;52.178;5.404;2023-09-08T08:14:46;27.20;99.90
16785;DHT22;8509;52.178;5.404;2023-09-08T08:17:12;27.50;99.90
16785;DHT22;8509;52.178;5.404;2023-09-08T08:19:38;27.30;99.90
16785;DHT22;8509;52.178;5.404;2023-09-08T08:22:03;27.40;99.90
16785;DHT22;8509;52.178;5.404;2023-09-08T08:24:33;27.70;99.90
16785;DHT22;8509;52.178;5.404;2023-09-08T08:27:02;28.10;99.90
16785;DHT22;8509;52.178;5.404;2023-09-08T08:29:29;28.50;99.90
16785;DHT22;8509;52.178;5.404;2023-09-08T08:31:57;28.80;99.90
16785;DHT22;8509;52.178;5.404;2023-09-08T08:34:23;28.80;99.90
16785;DHT22;8509;52.178;5.404;2023-09-08T08:36:48;29.00;99.90
16785;DHT22;8509;52.178;5.404;2023-09-08T08:39:14;29.40;99.90
16785;DHT22;8509;52.178;5.404;2023-09-08T08:41:41;29.40;99.90
16785;DHT22;8509;52.178;5.404;2023-09-08T08:44:07;29.50;99.90
16785;DHT22;8509;52.178;5.404;2023-09-08T08:46:34;29.50;99.90
16785;DHT22;8509;52.178;5.404;2023-09-08T08:49:03;29.50;99.90
16785;DHT22;8509;52.178;5.404;2023-09-08T08:51:31;29.50;99.90
16785;DHT22;8509;52.178;5.404;2023-09-08T08:53:57;29.40;99.90
16785;DHT22;8509;52.178;5.404;2023-09-08T08:56:26;29.20;99.90
16785;DHT22;8509;52.178;5.404;2023-09-08T08:58:52;29.10;99.90
16785;DHT22;8509;52.178;5.404;2023-09-08T09:01:18;28.90;99.90
16785;DHT22;8509;52.178;5.404;2023-09-08T09:03:49;28.60;99.90
16785;DHT22;8509;52.178;5.404;2023-09-08T09:06:15;28.20;99.90
16785;DHT22;8509;52.178;5.404;2023-09-08T09:08:44;28.00;99.90
16785;DHT22;8509;52.178;5.404;2023-09-08T09:11:12;28.00;99.90
16785;DHT22;8509;52.178;5.404;2023-09-08T09:13:38;27.90;99.90
16785;DHT22;8509;52.178;5.404;2023-09-08T09:16:04;27.90;99.90
16785;DHT22;8509;52.178;5.404;2023-09-08T09:18:33;27.80;99.90
16785;DHT22;8509;52.178;5.404;2023-09-08T09:21:01;27.70;99.90
16785;DHT22;8509;52.178;5.404;2023-09-08T09:25:54;27.60;99.90
16785;DHT22;8509;52.178;5.404;2023-09-08T09:28:20;27.60;99.90
16785;DHT22;8509;52.178;5.404;2023-09-08T09:30:48;27.60;99.90
16785;DHT22;8509;52.178;5.404;2023-09-08T09:33:14;27.70;99.90
16785;DHT22;8509;52.178;5.404;2023-09-08T09:35:46;27.70;99.90
16785;DHT22;8509;52.178;5.404;2023-09-08T09:38:12;27.70;99.90
16785;DHT22;8509;52.178;5.404;2023-09-08T09:40:38;27.70;99.90
16785;DHT22;8509;52.178;5.404;2023-09-08T09:43:05;27.60;99.90
16785;DHT22;8509;52.178;5.404;2023-09-08T09:45:32;27.60;99.90
16785;DHT22;8509;52.178;5.404;2023-09-08T09:47:58;27.50;99.90
16785;DHT22;8509;52.178;5.404;2023-09-08T09:50:32;27.50;99.90
16785;DHT22;8509;52.178;5.404;2023-09-08T09:53:00;27.60;99.90
16785;DHT22;8509;52.178;5.404;2023-09-08T09:55:27;27.60;99.90
16785;DHT22;8509;52.178;5.404;2023-09-08T09:57:57;27.60;99.90
16785;DHT22;8509;52.178;5.404;2023-09-08T10:00:26;27.60;99.90
16785;DHT22;8509;52.178;5.404;2023-09-08T10:02:56;27.70;99.90
16785;DHT22;8509;52.178;5.404;2023-09-08T10:05:24;27.70;99.90
16785;DHT22;8509;52.178;5.404;2023-09-08T10:07:50;27.80;99.90
16785;DHT22;8509;52.178;5.404;2023-09-08T10:10:16;27.60;99.90
16785;DHT22;8509;52.178;5.404;2023-09-08T10:12:44;27.70;99.90
16785;DHT22;8509;52.178;5.404;2023-09-08T10:15:13;27.90;99.90
16785;DHT22;8509;52.178;5.404;2023-09-08T10:17:44;27.90;99.90
16785;DHT22;8509;52.178;5.404;2023-09-08T10:20:10;28.00;99.90
16785;DHT22;8509;52.178;5.404;2023-09-08T10:22:42;28.00;99.90
16785;DHT22;8509;52.178;5.404;2023-09-08T10:25:09;28.00;99.90
16785;DHT22;8509;52.178;5.404;2023-09-08T10:27:38;28.10;99.90
16785;DHT22;8509;52.178;5.404;2023-09-08T10:30:05;28.00;99.90
16785;DHT22;8509;52.178;5.404;2023-09-08T10:32:36;28.00;99.90
16785;DHT22;8509;52.178;5.404;2023-09-08T10:35:04;28.10;99.90
16785;DHT22;8509;52.178;5.404;2023-09-08T10:37:30;28.10;99.90
16785;DHT22;8509;52.178;5.404;2023-09-08T10:42:46;28.20;99.90
16785;DHT22;8509;52.178;5.404;2023-09-08T10:45:18;28.30;99.90
16785;DHT22;8509;52.178;5.404;2023-09-08T10:50:18;28.10;99.90
16785;DHT22;8509;52.178;5.404;2023-09-08T10:52:44;28.20;99.90
16785;DHT22;8509;52.178;5.404;2023-09-08T10:55:11;28.20;99.90
16785;DHT22;8509;52.178;5.404;2023-09-08T10:57:45;28.20;99.90
16785;DHT22;8509;52.178;5.404;2023-09-08T11:00:11;28.20;99.90
16785;DHT22;8509;52.178;5.404;2023-09-08T11:02:48;28.20;99.90
16785;DHT22;8509;52.178;5.404;2023-09-08T11:05:17;28.20;99.90
16785;DHT22;8509;52.178;5.404;2023-09-08T11:07:47;28.30;99.90
16785;DHT22;8509;52.178;5.404;2023-09-08T11:10:15;28.30;99.90
16785;DHT22;8509;52.178;5.404;2023-09-08T11:12:40;28.20;99.90
16785;DHT22;8509;52.178;5.404;2023-09-08T11:15:08;28.20;99.90
16785;DHT22;8509;52.178;5.404;2023-09-08T11:17:37;28.20;99.90
16785;DHT22;8509;52.178;5.404;2023-09-08T11:20:07;28.20;99.90
16785;DHT22;8509;52.178;5.404;2023-09-08T11:22:34;28.30;99.90
16785;DHT22;8509;52.178;5.404;2023-09-08T11:25:01;28.40;99.90
16785;DHT22;8509;52.178;5.404;2023-09-08T11:27:30;28.40;99.90
16785;DHT22;8509;52.178;5.404;2023-09-08T11:29:56;28.40;99.90
16785;DHT22;8509;52.178;5.404;2023-09-08T11:32:35;28.20;99.90
16785;DHT22;8509;52.178;5.404;2023-09-08T11:35:08;28.30;99.90
16785;DHT22;8509;52.178;5.404;2023-09-08T11:37:37;28.40;99.90
16785;DHT22;8509;52.178;5.404;2023-09-08T11:40:07;28.50;99.90
16785;DHT22;8509;52.178;5.404;2023-09-08T11:42:41;28.50;99.90
16785;DHT22;8509;52.178;5.404;2023-09-08T11:45:15;28.50;99.90
16785;DHT22;8509;52.178;5.404;2023-09-08T11:47:46;28.60;99.90
16785;DHT22;8509;52.178;5.404;2023-09-08T11:50:12;28.70;99.90
16785;DHT22;8509;52.178;5.404;2023-09-08T11:52:44;28.60;99.90
16785;DHT22;8509;52.178;5.404;2023-09-08T11:55:11;28.60;99.90
16785;DHT22;8509;52.178;5.404;2023-09-08T11:57:39;28.60;99.90
16785;DHT22;8509;52.178;5.404;2023-09-08T12:00:06;28.40;99.90
16785;DHT22;8509;52.178;5.404;2023-09-08T12:02:35;28.40;99.90
16785;DHT22;8509;52.178;5.404;2023-09-08T12:05:02;28.50;99.90
16785;DHT22;8509;52.178;5.404;2023-09-08T12:07:28;28.60;99.90
16785;DHT22;8509;52.178;5.404;2023-09-08T12:09:57;28.60;99.90
16785;DHT22;8509;52.178;5.404;2023-09-08T12:12:25;28.60;99.90
16785;DHT22;8509;52.178;5.404;2023-09-08T12:14:51;28.60;99.90
16785;DHT22;8509;52.178;5.404;2023-09-08T12:17:17;28.60;99.90
16785;DHT22;8509;52.178;5.404;2023-09-08T12:19:43;28.60;99.90
16785;DHT22;8509;52.178;5.404;2023-09-08T12:22:09;28.70;99.90
16785;DHT22;8509;52.178;5.404;2023-09-08T12:25:07;28.70;99.90
16785;DHT22;8509;52.178;5.404;2023-09-08T12:27:38;28.70;99.90
16785;DHT22;8509;52.178;5.404;2023-09-08T12:30:05;28.80;99.90
16785;DHT22;8509;52.178;5.404;2023-09-08T12:32:32;28.80;99.90
16785;DHT22;8509;52.178;5.404;2023-09-08T12:34:59;28.80;99.90
16785;DHT22;8509;52.178;5.404;2023-09-08T12:37:26;28.80;99.90
16785;DHT22;8509;52.178;5.404;2023-09-08T12:39:56;28.80;99.90
16785;DHT22;8509;52.178;5.404;2023-09-08T12:42:22;28.80;99.90
16785;DHT22;8509;52.178;5.404;2023-09-08T12:44:51;28.90;99.90
16785;DHT22;8509;52.178;5.404;2023-09-08T12:47:18;29.00;99.90
16785;DHT22;8509;52.178;5.404;2023-09-08T12:49:44;29.00;99.90
16785;DHT22;8509;52.178;5.404;2023-09-08T12:52:09;29.00;99.90
16785;DHT22;8509;52.178;5.404;2023-09-08T12:54:35;29.00;99.90
16785;DHT22;8509;52.178;5.404;2023-09-08T12:57:01;29.00;99.90
16785;DHT22;8509;52.178;5.404;2023-09-08T12:59:27;29.10;99.90
16785;DHT22;8509;52.178;5.404;2023-09-08T13:01:53;29.10;99.90
16785;DHT22;8509;52.178;5.404;2023-09-08T13:04:19;29.20;99.90
16785;DHT22;8509;52.178;5.404;2023-09-08T13:06:45;29.20;99.90
16785;DHT22;8509;52.178;5.404;2023-09-08T13:09:11;29.20;99.90
16785;DHT22;8509;52.178;5.404;2023-09-08T13:11:37;29.20;99.90
16785;DHT22;8509;52.178;5.404;2023-09-08T13:14:02;29.20;99.90
16785;DHT22;8509;52.178;5.404;2023-09-08T13:16:28;29.20;99.90
16785;DHT22;8509;52.178;5.404;2023-09-08T13:18:54;29.20;99.90
16785;DHT22;8509;52.178;5.404;2023-09-08T13:21:20;29.20;99.90
16785;DHT22;8509;52.178;5.404;2023-09-08T13:23:46;29.30;99.90
16785;DHT22;8509;52.178;5.404;2023-09-08T13:26:12;29.30;99.90
16785;DHT22;8509;52.178;5.404;2023-09-08T13:28:38;29.30;99.90
16785;DHT22;8509;52.178;5.404;2023-09-08T13:31:03;29.30;99.90
16785;DHT22;8509;52.178;5.404;2023-09-08T13:33:29;29.30;99.90
16785;DHT22;8509;52.178;5.404;2023-09-08T13:35:55;29.20;99.90
16785;DHT22;8509;52.178;5.404;2023-09-08T13:38:21;29.20;99.90
16785;DHT22;8509;52.178;5.404;2023-09-08T13:40:47;29.20;99.90
16785;DHT22;8509;52.178;5.404;2023-09-08T13:43:12;29.30;99.90
16785;DHT22;8509;52.178;5.404;2023-09-08T13:45:38;29.30;99.90
16785;DHT22;8509;52.178;5.404;2023-09-08T13:48:04;29.30;99.90
16785;DHT22;8509;52.178;5.404;2023-09-08T13:50:31;29.20;99.90
16785;DHT22;8509;52.178;5.404;2023-09-08T13:52:57;29.20;99.90
16785;DHT22;8509;52.178;5.404;2023-09-08T13:55:23;29.10;99.90
16785;DHT22;8509;52.178;5.404;2023-09-08T13:57:50;29.10;99.90
16785;DHT22;8509;52.178;5.404;2023-09-08T14:00:16;29.10;99.90
16785;DHT22;8509;52.178;5.404;2023-09-08T14:02:42;29.20;99.90
16785;DHT22;8509;52.178;5.404;2023-09-08T14:05:08;29.20;99.90
16785;DHT22;8509;52.178;5.404;2023-09-08T14:07:35;29.20;99.90
16785;DHT22;8509;52.178;5.404;2023-09-08T14:10:00;29.30;99.90
16785;DHT22;8509;52.178;5.404;2023-09-08T14:12:27;29.20;99.90
16785;DHT22;8509;52.178;5.404;2023-09-08T14:14:52;29.20;99.90
16785;DHT22;8509;52.178;5.404;2023-09-08T14:17:18;29.10;99.90
16785;DHT22;8509;52.178;5.404;2023-09-08T14:19:44;29.10;99.90
16785;DHT22;8509;52.178;5.404;2023-09-08T14:22:09;29.20;99.90
16785;DHT22;8509;52.178;5.404;2023-09-08T14:24:35;29.20;99.90
16785;DHT22;8509;52.178;5.404;2023-09-08T14:27:00;29.10;99.90
16785;DHT22;8509;52.178;5.404;2023-09-08T14:29:26;29.00;99.90
16785;DHT22;8509;52.178;5.404;2023-09-08T14:31:52;29.00;99.90
16785;DHT22;8509;52.178;5.404;2023-09-08T14:34:17;29.00;99.90
16785;DHT22;8509;52.178;5.404;2023-09-08T14:36:44;29.00;99.90
16785;DHT22;8509;52.178;5.404;2023-09-08T14:39:09;29.10;99.90
16785;DHT22;8509;52.178;5.404;2023-09-08T14:41:37;29.10;99.90
16785;DHT22;8509;52.178;5.404;2023-09-08T14:44:02;29.00;99.90
16785;DHT22;8509;52.178;5.404;2023-09-08T14:46:28;29.00;99.90
16785;DHT22;8509;52.178;5.404;2023-09-08T14:48:54;29.00;99.90
16785;DHT22;8509;52.178;5.404;2023-09-08T14:51:20;29.00;99.90
16785;DHT22;8509;52.178;5.404;2023-09-08T14:53:46;29.10;99.90
16785;DHT22;8509;52.178;5.404;2023-09-08T14:56:11;29.10;99.90
16785;DHT22;8509;52.178;5.404;2023-09-08T14:58:37;29.10;99.90
16785;DHT22;8509;52.178;5.404;2023-09-08T15:01:06;29.00;99.90
16785;DHT22;8509;52.178;5.404;2023-09-08T15:03:36;29.00;99.90
16785;DHT22;8509;52.178;5.404;2023-09-08T15:06:02;29.00;99.90
16785;DHT22;8509;52.178;5.404;2023-09-08T15:08:28;29.00;99.90
16785;DHT22;8509;52.178;5.404;2023-09-08T15:10:53;29.10;99.90
16785;DHT22;8509;52.178;5.404;2023-09-08T15:13:19;29.00;99.90
16785;DHT22;8509;52.178;5.404;2023-09-08T15:15:45;28.90;99.90
16785;DHT22;8509;52.178;5.404;2023-09-08T15:18:10;28.90;99.90
16785;DHT22;8509;52.178;5.404;2023-09-08T15:20:36;28.90;99.90
16785;DHT22;8509;52.178;5.404;2023-09-08T15:23:01;28.90;99.90
16785;DHT22;8509;52.178;5.404;2023-09-08T15:25:28;29.00;99.90
16785;DHT22;8509;52.178;5.404;2023-09-08T15:27:54;28.90;99.90
16785;DHT22;8509;52.178;5.404;2023-09-08T15:30:20;28.90;99.90
16785;DHT22;8509;52.178;5.404;2023-09-08T15:32:46;28.90;99.90
16785;DHT22;8509;52.178;5.404;2023-09-08T15:35:11;28.90;99.90
16785;DHT22;8509;52.178;5.404;2023-09-08T15:37:37;28.80;99.90
16785;DHT22;8509;52.178;5.404;2023-09-08T15:40:03;28.70;99.90
16785;DHT22;8509;52.178;5.404;2023-09-08T15:42:29;28.70;99.90
16785;DHT22;8509;52.178;5.404;2023-09-08T15:44:55;28.60;99.90
16785;DHT22;8509;52.178;5.404;2023-09-08T15:47:20;28.60;99.90
16785;DHT22;8509;52.178;5.404;2023-09-08T15:49:46;28.60;99.90
16785;DHT22;8509;52.178;5.404;2023-09-08T15:52:12;28.60;99.90
16785;DHT22;8509;52.178;5.404;2023-09-08T15:54:38;28.70;99.90